sensor_id;sensor_type;location;lat;lon;timestamp;P1;durP1;ratioP1;P2;durP2;ratioP2
3819;SDS011;1925;51.356;9.530;2023-03-23T00:00:39;3.20;;;1.17;;
3819;SDS011;1925;51.356;9.530;2023-03-23T00:03:05;2.78;;;1.25;;
3819;SDS011;1925;51.356;9.530;2023-03-23T00:05:31;2.93;;;1.53;;
3819;SDS011;1925;51.356;9.530;2023-03-23T00:07:57;4.73;;;1.60;;
3819;SDS011;1925;51.356;9.530;2023-03-23T00:10:27;2.70;;;1.23;;
3819;SDS011;1925;51.356;9.530;2023-03-23T00:12:57;4.88;;;1.85;;
3819;SDS011;1925;51.356;9.530;2023-03-23T00:15:27;1.77;;;1.30;;
3819;SDS011;1925;51.356;9.530;2023-03-23T00:17:58;1.55;;;0.90;;
3819;SDS011;1925;51.356;9.530;2023-03-23T00:20:28;2.10;;;0.90;;
3819;SDS011;1925;51.356;9.530;2023-03-23T00:23:05;2.53;;;1.37;;
3819;SDS011;1925;51.356;9.530;2023-03-23T00:25:32;3.63;;;1.65;;
3819;SDS011;1925;51.356;9.530;2023-03-23T00:27:58;2.80;;;1.27;;
3819;SDS011;1925;51.356;9.530;2023-03-23T00:30:25;1.45;;;1.35;;
3819;SDS011;1925;51.356;9.530;2023-03-23T00:32:51;1.70;;;1.13;;
3819;SDS011;1925;51.356;9.530;2023-03-23T00:35:17;3.50;;;1.00;;
3819;SDS011;1925;51.356;9.530;2023-03-23T00:37:44;2.60;;;0.93;;
3819;SDS011;1925;51.356;9.530;2023-03-23T00:40:10;1.53;;;1.10;;
3819;SDS011;1925;51.356;9.530;2023-03-23T00:42:37;1.87;;;1.20;;
3819;SDS011;1925;51.356;9.530;2023-03-23T00:45:03;4.10;;;1.43;;
3819;SDS011;1925;51.356;9.530;2023-03-23T00:47:36;2.80;;;1.30;;
3819;SDS011;1925;51.356;9.530;2023-03-23T00:50:03;2.38;;;1.08;;
3819;SDS011;1925;51.356;9.530;2023-03-23T00:52:30;2.78;;;0.95;;
3819;SDS011;1925;51.356;9.530;2023-03-23T00:54:56;2.17;;;0.93;;
3819;SDS011;1925;51.356;9.530;2023-03-23T00:57:22;2.17;;;1.10;;
3819;SDS011;1925;51.356;9.530;2023-03-23T00:59:49;2.03;;;1.00;;
3819;SDS011;1925;51.356;9.530;2023-03-23T01:02:15;1.10;;;1.00;;
3819;SDS011;1925;51.356;9.530;2023-03-23T01:04:42;3.35;;;1.30;;
3819;SDS011;1925;51.356;9.530;2023-03-23T01:07:09;2.15;;;1.13;;
3819;SDS011;1925;51.356;9.530;2023-03-23T01:09:37;1.20;;;1.00;;
3819;SDS011;1925;51.356;9.530;2023-03-23T01:12:05;2.05;;;0.95;;
3819;SDS011;1925;51.356;9.530;2023-03-23T01:14:31;4.35;;;1.35;;
3819;SDS011;1925;51.356;9.530;2023-03-23T01:16:57;3.40;;;1.30;;
3819;SDS011;1925;51.356;9.530;2023-03-23T01:19:23;4.77;;;1.77;;
3819;SDS011;1925;51.356;9.530;2023-03-23T01:21:49;2.50;;;1.35;;
3819;SDS011;1925;51.356;9.530;2023-03-23T01:24:15;4.15;;;1.50;;
3819;SDS011;1925;51.356;9.530;2023-03-23T01:26:41;1.70;;;1.40;;
3819;SDS011;1925;51.356;9.530;2023-03-23T01:29:07;2.17;;;1.33;;
3819;SDS011;1925;51.356;9.530;2023-03-23T01:31:33;2.70;;;1.20;;
3819;SDS011;1925;51.356;9.530;2023-03-23T01:34:01;1.30;;;1.00;;
3819;SDS011;1925;51.356;9.530;2023-03-23T01:36:27;1.33;;;1.00;;
3819;SDS011;1925;51.356;9.530;2023-03-23T01:38:57;1.25;;;0.90;;
3819;SDS011;1925;51.356;9.530;2023-03-23T01:41:23;3.33;;;1.13;;
3819;SDS011;1925;51.356;9.530;2023-03-23T01:43:53;2.25;;;1.10;;
3819;SDS011;1925;51.356;9.530;2023-03-23T01:46:19;2.33;;;1.27;;
3819;SDS011;1925;51.356;9.530;2023-03-23T01:48:47;1.17;;;1.00;;
3819;SDS011;1925;51.356;9.530;2023-03-23T01:51:14;4.50;;;1.85;;
3819;SDS011;1925;51.356;9.530;2023-03-23T01:53:45;2.80;;;1.65;;
3819;SDS011;1925;51.356;9.530;2023-03-23T01:56:12;1.30;;;0.95;;
3819;SDS011;1925;51.356;9.530;2023-03-23T01:58:39;4.13;;;1.45;;
3819;SDS011;1925;51.356;9.530;2023-03-23T02:01:08;1.70;;;0.98;;
3819;SDS011;1925;51.356;9.530;2023-03-23T02:03:36;2.13;;;1.30;;
3819;SDS011;1925;51.356;9.530;2023-03-23T02:06:03;4.05;;;1.20;;
3819;SDS011;1925;51.356;9.530;2023-03-23T02:08:29;3.53;;;1.00;;
3819;SDS011;1925;51.356;9.530;2023-03-23T02:10:57;2.00;;;0.90;;
3819;SDS011;1925;51.356;9.530;2023-03-23T02:13:23;2.40;;;0.93;;
3819;SDS011;1925;51.356;9.530;2023-03-23T02:18:27;2.88;;;1.30;;
3819;SDS011;1925;51.356;9.530;2023-03-23T02:25:55;1.40;;;1.08;;
3819;SDS011;1925;51.356;9.530;2023-03-23T02:33:39;2.28;;;1.25;;
3819;SDS011;1925;51.356;9.530;2023-03-23T02:38:39;1.77;;;1.08;;
3819;SDS011;1925;51.356;9.530;2023-03-23T02:41:07;2.05;;;1.20;;
3819;SDS011;1925;51.356;9.530;2023-03-23T02:43:36;2.50;;;1.10;;
3819;SDS011;1925;51.356;9.530;2023-03-23T02:46:05;1.40;;;0.87;;
3819;SDS011;1925;51.356;9.530;2023-03-23T02:48:33;2.55;;;1.25;;
3819;SDS011;1925;51.356;9.530;2023-03-23T02:51:01;2.17;;;1.10;;
3819;SDS011;1925;51.356;9.530;2023-03-23T02:53:28;1.23;;;1.13;;
3819;SDS011;1925;51.356;9.530;2023-03-23T02:55:54;1.92;;;1.45;;
3819;SDS011;1925;51.356;9.530;2023-03-23T02:58:21;1.10;;;0.88;;
3819;SDS011;1925;51.356;9.530;2023-03-23T03:00:50;1.30;;;1.15;;
3819;SDS011;1925;51.356;9.530;2023-03-23T03:03:17;1.65;;;0.98;;
3819;SDS011;1925;51.356;9.530;2023-03-23T03:10:42;2.70;;;1.00;;
3819;SDS011;1925;51.356;9.530;2023-03-23T03:13:22;1.70;;;1.08;;
3819;SDS011;1925;51.356;9.530;2023-03-23T03:18:38;2.63;;;1.25;;
3819;SDS011;1925;51.356;9.530;2023-03-23T03:21:06;2.35;;;1.23;;
3819;SDS011;1925;51.356;9.530;2023-03-23T03:23:33;3.75;;;1.10;;
3819;SDS011;1925;51.356;9.530;2023-03-23T03:26:00;1.73;;;1.60;;
3819;SDS011;1925;51.356;9.530;2023-03-23T03:28:29;3.40;;;2.50;;
3819;SDS011;1925;51.356;9.530;2023-03-23T03:30:56;2.40;;;1.60;;
3819;SDS011;1925;51.356;9.530;2023-03-23T03:33:25;1.80;;;1.45;;
3819;SDS011;1925;51.356;9.530;2023-03-23T03:35:53;2.38;;;1.30;;
3819;SDS011;1925;51.356;9.530;2023-03-23T03:38:19;2.10;;;1.27;;
3819;SDS011;1925;51.356;9.530;2023-03-23T03:40:45;2.20;;;1.60;;
3819;SDS011;1925;51.356;9.530;2023-03-23T03:43:11;5.40;;;1.93;;
3819;SDS011;1925;51.356;9.530;2023-03-23T03:45:37;2.80;;;2.10;;
3819;SDS011;1925;51.356;9.530;2023-03-23T03:48:03;3.60;;;2.50;;
3819;SDS011;1925;51.356;9.530;2023-03-23T03:50:29;6.53;;;2.13;;
3819;SDS011;1925;51.356;9.530;2023-03-23T03:52:55;3.53;;;2.92;;
3819;SDS011;1925;51.356;9.530;2023-03-23T03:55:22;5.38;;;3.00;;
3819;SDS011;1925;51.356;9.530;2023-03-23T03:57:48;5.30;;;2.70;;
3819;SDS011;1925;51.356;9.530;2023-03-23T04:00:14;4.20;;;3.40;;
3819;SDS011;1925;51.356;9.530;2023-03-23T04:02:41;4.10;;;2.30;;
3819;SDS011;1925;51.356;9.530;2023-03-23T04:05:07;3.97;;;2.80;;
3819;SDS011;1925;51.356;9.530;2023-03-23T04:07:35;4.20;;;2.47;;
3819;SDS011;1925;51.356;9.530;2023-03-23T04:10:07;2.95;;;2.35;;
3819;SDS011;1925;51.356;9.530;2023-03-23T04:12:34;2.60;;;2.25;;
3819;SDS011;1925;51.356;9.530;2023-03-23T04:15:00;4.78;;;2.10;;
3819;SDS011;1925;51.356;9.530;2023-03-23T04:17:26;3.43;;;1.83;;
3819;SDS011;1925;51.356;9.530;2023-03-23T04:19:53;2.38;;;2.13;;
3819;SDS011;1925;51.356;9.530;2023-03-23T04:22:21;5.57;;;2.20;;
3819;SDS011;1925;51.356;9.530;2023-03-23T04:24:58;3.88;;;1.95;;
3819;SDS011;1925;51.356;9.530;2023-03-23T04:27:26;1.98;;;1.77;;
3819;SDS011;1925;51.356;9.530;2023-03-23T04:29:53;4.85;;;2.05;;
3819;SDS011;1925;51.356;9.530;2023-03-23T04:32:19;4.45;;;2.95;;
3819;SDS011;1925;51.356;9.530;2023-03-23T04:34:45;3.83;;;2.53;;
3819;SDS011;1925;51.356;9.530;2023-03-23T04:37:11;2.60;;;1.80;;
3819;SDS011;1925;51.356;9.530;2023-03-23T04:39:38;4.10;;;2.28;;
3819;SDS011;1925;51.356;9.530;2023-03-23T04:42:05;3.35;;;2.83;;
3819;SDS011;1925;51.356;9.530;2023-03-23T04:44:31;3.08;;;2.78;;
3819;SDS011;1925;51.356;9.530;2023-03-23T04:46:57;4.80;;;2.85;;
3819;SDS011;1925;51.356;9.530;2023-03-23T04:49:26;4.55;;;2.10;;
3819;SDS011;1925;51.356;9.530;2023-03-23T04:51:54;3.90;;;2.40;;
3819;SDS011;1925;51.356;9.530;2023-03-23T04:54:21;3.42;;;2.42;;
3819;SDS011;1925;51.356;9.530;2023-03-23T04:56:47;6.05;;;2.47;;
3819;SDS011;1925;51.356;9.530;2023-03-23T04:59:13;3.07;;;2.27;;
3819;SDS011;1925;51.356;9.530;2023-03-23T05:01:40;1.80;;;1.47;;
3819;SDS011;1925;51.356;9.530;2023-03-23T05:04:10;2.13;;;1.65;;
3819;SDS011;1925;51.356;9.530;2023-03-23T05:06:41;2.10;;;1.70;;
3819;SDS011;1925;51.356;9.530;2023-03-23T05:09:09;6.05;;;1.67;;
3819;SDS011;1925;51.356;9.530;2023-03-23T05:11:35;1.63;;;1.30;;
3819;SDS011;1925;51.356;9.530;2023-03-23T05:14:02;1.57;;;1.40;;
3819;SDS011;1925;51.356;9.530;2023-03-23T05:16:29;1.73;;;1.58;;
3819;SDS011;1925;51.356;9.530;2023-03-23T05:18:55;1.58;;;1.48;;
3819;SDS011;1925;51.356;9.530;2023-03-23T05:21:24;2.08;;;1.42;;
3819;SDS011;1925;51.356;9.530;2023-03-23T05:23:51;2.83;;;2.08;;
3819;SDS011;1925;51.356;9.530;2023-03-23T05:26:20;2.95;;;1.90;;
3819;SDS011;1925;51.356;9.530;2023-03-23T05:28:46;2.80;;;2.30;;
3819;SDS011;1925;51.356;9.530;2023-03-23T05:31:13;2.60;;;2.17;;
3819;SDS011;1925;51.356;9.530;2023-03-23T05:33:39;4.40;;;1.87;;
3819;SDS011;1925;51.356;9.530;2023-03-23T05:36:05;2.17;;;1.48;;
3819;SDS011;1925;51.356;9.530;2023-03-23T05:38:32;1.50;;;1.40;;
3819;SDS011;1925;51.356;9.530;2023-03-23T05:40:59;2.00;;;1.80;;
3819;SDS011;1925;51.356;9.530;2023-03-23T05:43:26;2.63;;;1.40;;
3819;SDS011;1925;51.356;9.530;2023-03-23T05:45:52;4.97;;;3.60;;
3819;SDS011;1925;51.356;9.530;2023-03-23T05:48:18;4.65;;;3.00;;
3819;SDS011;1925;51.356;9.530;2023-03-23T05:50:44;4.00;;;3.28;;
3819;SDS011;1925;51.356;9.530;2023-03-23T05:53:11;3.63;;;2.75;;
3819;SDS011;1925;51.356;9.530;2023-03-23T05:55:37;2.70;;;2.35;;
3819;SDS011;1925;51.356;9.530;2023-03-23T05:58:03;3.30;;;2.00;;
3819;SDS011;1925;51.356;9.530;2023-03-23T06:00:29;3.33;;;2.13;;
3819;SDS011;1925;51.356;9.530;2023-03-23T06:02:57;1.67;;;1.58;;
3819;SDS011;1925;51.356;9.530;2023-03-23T06:05:23;2.27;;;1.63;;
3819;SDS011;1925;51.356;9.530;2023-03-23T06:07:50;3.75;;;2.28;;
3819;SDS011;1925;51.356;9.530;2023-03-23T06:10:17;3.83;;;2.05;;
3819;SDS011;1925;51.356;9.530;2023-03-23T06:12:43;2.83;;;1.57;;
3819;SDS011;1925;51.356;9.530;2023-03-23T06:15:09;3.47;;;2.38;;
3819;SDS011;1925;51.356;9.530;2023-03-23T06:17:36;4.90;;;2.50;;
3819;SDS011;1925;51.356;9.530;2023-03-23T06:20:05;5.85;;;2.88;;
3819;SDS011;1925;51.356;9.530;2023-03-23T06:22:35;3.03;;;2.13;;
3819;SDS011;1925;51.356;9.530;2023-03-23T06:25:01;3.00;;;2.50;;
3819;SDS011;1925;51.356;9.530;2023-03-23T06:27:27;4.40;;;2.67;;
3819;SDS011;1925;51.356;9.530;2023-03-23T06:29:54;4.07;;;3.25;;
3819;SDS011;1925;51.356;9.530;2023-03-23T06:32:21;3.72;;;2.72;;
3819;SDS011;1925;51.356;9.530;2023-03-23T06:34:47;5.20;;;3.45;;
3819;SDS011;1925;51.356;9.530;2023-03-23T06:37:14;5.13;;;2.83;;
3819;SDS011;1925;51.356;9.530;2023-03-23T06:39:40;7.72;;;2.97;;
3819;SDS011;1925;51.356;9.530;2023-03-23T06:42:10;1.95;;;1.70;;
3819;SDS011;1925;51.356;9.530;2023-03-23T06:44:36;2.85;;;1.50;;
3819;SDS011;1925;51.356;9.530;2023-03-23T06:47:03;1.90;;;1.70;;
3819;SDS011;1925;51.356;9.530;2023-03-23T06:49:29;3.67;;;1.70;;
3819;SDS011;1925;51.356;9.530;2023-03-23T06:51:54;1.40;;;1.30;;
3819;SDS011;1925;51.356;9.530;2023-03-23T06:54:25;1.50;;;1.40;;
3819;SDS011;1925;51.356;9.530;2023-03-23T06:56:51;1.48;;;1.38;;
3819;SDS011;1925;51.356;9.530;2023-03-23T06:59:17;1.67;;;1.35;;
3819;SDS011;1925;51.356;9.530;2023-03-23T07:01:43;3.57;;;1.30;;
3819;SDS011;1925;51.356;9.530;2023-03-23T07:04:09;1.85;;;1.73;;
3819;SDS011;1925;51.356;9.530;2023-03-23T07:06:35;2.60;;;1.70;;
3819;SDS011;1925;51.356;9.530;2023-03-23T07:09:02;2.95;;;1.60;;
3819;SDS011;1925;51.356;9.530;2023-03-23T07:11:28;1.67;;;1.50;;
3819;SDS011;1925;51.356;9.530;2023-03-23T07:13:54;1.70;;;1.40;;
3819;SDS011;1925;51.356;9.530;2023-03-23T07:16:21;2.15;;;1.70;;
3819;SDS011;1925;51.356;9.530;2023-03-23T07:18:47;4.07;;;1.70;;
3819;SDS011;1925;51.356;9.530;2023-03-23T07:21:13;1.80;;;1.60;;
3819;SDS011;1925;51.356;9.530;2023-03-23T07:23:40;1.60;;;1.42;;
3819;SDS011;1925;51.356;9.530;2023-03-23T07:26:06;2.30;;;1.90;;
3819;SDS011;1925;51.356;9.530;2023-03-23T07:28:32;2.10;;;1.40;;
3819;SDS011;1925;51.356;9.530;2023-03-23T07:30:58;2.63;;;2.10;;
3819;SDS011;1925;51.356;9.530;2023-03-23T07:33:24;1.70;;;1.60;;
3819;SDS011;1925;51.356;9.530;2023-03-23T07:35:51;1.85;;;1.58;;
3819;SDS011;1925;51.356;9.530;2023-03-23T07:38:17;1.60;;;1.50;;
3819;SDS011;1925;51.356;9.530;2023-03-23T07:40:45;3.65;;;2.08;;
3819;SDS011;1925;51.356;9.530;2023-03-23T07:43:11;2.05;;;1.85;;
3819;SDS011;1925;51.356;9.530;2023-03-23T07:45:38;1.88;;;1.65;;
3819;SDS011;1925;51.356;9.530;2023-03-23T07:48:04;2.40;;;1.60;;
3819;SDS011;1925;51.356;9.530;2023-03-23T07:50:30;3.35;;;1.40;;
3819;SDS011;1925;51.356;9.530;2023-03-23T07:52:57;3.58;;;1.30;;
3819;SDS011;1925;51.356;9.530;2023-03-23T07:55:24;2.73;;;1.57;;
3819;SDS011;1925;51.356;9.530;2023-03-23T07:57:50;1.98;;;1.77;;
3819;SDS011;1925;51.356;9.530;2023-03-23T08:00:17;2.00;;;1.80;;
3819;SDS011;1925;51.356;9.530;2023-03-23T08:02:47;3.92;;;1.70;;
3819;SDS011;1925;51.356;9.530;2023-03-23T08:05:15;2.13;;;1.33;;
3819;SDS011;1925;51.356;9.530;2023-03-23T08:07:41;3.25;;;1.65;;
3819;SDS011;1925;51.356;9.530;2023-03-23T08:10:08;3.05;;;1.60;;
3819;SDS011;1925;51.356;9.530;2023-03-23T08:12:35;2.90;;;1.60;;
3819;SDS011;1925;51.356;9.530;2023-03-23T08:15:02;2.88;;;1.33;;
3819;SDS011;1925;51.356;9.530;2023-03-23T08:17:28;1.92;;;1.73;;
3819;SDS011;1925;51.356;9.530;2023-03-23T08:19:54;1.53;;;1.27;;
3819;SDS011;1925;51.356;9.530;2023-03-23T08:22:20;2.30;;;1.50;;
3819;SDS011;1925;51.356;9.530;2023-03-23T08:24:46;5.15;;;2.72;;
3819;SDS011;1925;51.356;9.530;2023-03-23T08:27:12;1.93;;;1.30;;
3819;SDS011;1925;51.356;9.530;2023-03-23T08:29:38;2.30;;;1.80;;
3819;SDS011;1925;51.356;9.530;2023-03-23T08:32:05;2.40;;;1.60;;
3819;SDS011;1925;51.356;9.530;2023-03-23T08:34:31;3.83;;;1.73;;
3819;SDS011;1925;51.356;9.530;2023-03-23T08:36:57;3.35;;;1.55;;
3819;SDS011;1925;51.356;9.530;2023-03-23T08:39:23;3.03;;;2.10;;
3819;SDS011;1925;51.356;9.530;2023-03-23T08:41:50;3.45;;;1.58;;
3819;SDS011;1925;51.356;9.530;2023-03-23T08:44:16;2.45;;;1.63;;
3819;SDS011;1925;51.356;9.530;2023-03-23T08:46:42;3.55;;;2.10;;
3819;SDS011;1925;51.356;9.530;2023-03-23T08:49:08;2.30;;;2.10;;
3819;SDS011;1925;51.356;9.530;2023-03-23T08:51:34;1.70;;;1.57;;
3819;SDS011;1925;51.356;9.530;2023-03-23T08:54:00;1.83;;;1.55;;
3819;SDS011;1925;51.356;9.530;2023-03-23T08:56:26;2.72;;;2.03;;
3819;SDS011;1925;51.356;9.530;2023-03-23T08:58:53;2.30;;;1.40;;
3819;SDS011;1925;51.356;9.530;2023-03-23T09:01:19;3.70;;;2.17;;
3819;SDS011;1925;51.356;9.530;2023-03-23T09:03:45;3.67;;;1.80;;
3819;SDS011;1925;51.356;9.530;2023-03-23T09:06:11;6.00;;;1.90;;
3819;SDS011;1925;51.356;9.530;2023-03-23T09:08:38;3.33;;;1.97;;
3819;SDS011;1925;51.356;9.530;2023-03-23T09:11:05;3.55;;;1.50;;
3819;SDS011;1925;51.356;9.530;2023-03-23T09:13:35;2.65;;;1.73;;
3819;SDS011;1925;51.356;9.530;2023-03-23T09:16:01;3.58;;;1.77;;
3819;SDS011;1925;51.356;9.530;2023-03-23T09:18:28;3.05;;;2.00;;
3819;SDS011;1925;51.356;9.530;2023-03-23T09:20:56;2.00;;;1.65;;
3819;SDS011;1925;51.356;9.530;2023-03-23T09:23:22;3.10;;;2.05;;
3819;SDS011;1925;51.356;9.530;2023-03-23T09:25:49;3.30;;;1.98;;
3819;SDS011;1925;51.356;9.530;2023-03-23T09:28:16;2.55;;;1.75;;
3819;SDS011;1925;51.356;9.530;2023-03-23T09:30:42;3.07;;;1.77;;
3819;SDS011;1925;51.356;9.530;2023-03-23T09:33:09;3.75;;;1.92;;
3819;SDS011;1925;51.356;9.530;2023-03-23T09:35:35;1.90;;;1.70;;
3819;SDS011;1925;51.356;9.530;2023-03-23T09:38:03;2.10;;;1.33;;
3819;SDS011;1925;51.356;9.530;2023-03-23T09:41:33;3.60;;;2.10;;
3819;SDS011;1925;51.356;9.530;2023-03-23T09:43:29;2.28;;;1.65;;
3819;SDS011;1925;51.356;9.530;2023-03-23T09:46:02;2.67;;;1.50;;
3819;SDS011;1925;51.356;9.530;2023-03-23T09:48:38;2.90;;;1.20;;
3819;SDS011;1925;51.356;9.530;2023-03-23T09:53:53;1.50;;;1.25;;
3819;SDS011;1925;51.356;9.530;2023-03-23T09:56:20;1.75;;;1.38;;
3819;SDS011;1925;51.356;9.530;2023-03-23T10:01:27;1.88;;;1.42;;
3819;SDS011;1925;51.356;9.530;2023-03-23T10:06:42;1.90;;;1.20;;
3819;SDS011;1925;51.356;9.530;2023-03-23T10:09:09;2.03;;;1.35;;
3819;SDS011;1925;51.356;9.530;2023-03-23T10:11:45;3.50;;;1.35;;
3819;SDS011;1925;51.356;9.530;2023-03-23T10:16:48;1.83;;;0.95;;
3819;SDS011;1925;51.356;9.530;2023-03-23T10:21:54;3.47;;;1.63;;
3819;SDS011;1925;51.356;9.530;2023-03-23T10:24:25;1.73;;;1.35;;
3819;SDS011;1925;51.356;9.530;2023-03-23T10:26:58;3.05;;;1.20;;
3819;SDS011;1925;51.356;9.530;2023-03-23T10:29:28;2.63;;;1.27;;
3819;SDS011;1925;51.356;9.530;2023-03-23T10:36:59;1.95;;;1.15;;
3819;SDS011;1925;51.356;9.530;2023-03-23T10:39:33;3.13;;;1.40;;
3819;SDS011;1925;51.356;9.530;2023-03-23T10:42:04;1.00;;;0.90;;
3819;SDS011;1925;51.356;9.530;2023-03-23T10:44:33;2.13;;;1.00;;
3819;SDS011;1925;51.356;9.530;2023-03-23T10:47:00;1.52;;;1.10;;
3819;SDS011;1925;51.356;9.530;2023-03-23T10:49:29;2.78;;;1.17;;
3819;SDS011;1925;51.356;9.530;2023-03-23T10:54:38;2.00;;;1.20;;
3819;SDS011;1925;51.356;9.530;2023-03-23T10:57:12;2.42;;;1.65;;
3819;SDS011;1925;51.356;9.530;2023-03-23T10:59:40;3.92;;;1.55;;
3819;SDS011;1925;51.356;9.530;2023-03-23T11:02:12;1.83;;;1.40;;
3819;SDS011;1925;51.356;9.530;2023-03-23T11:04:39;2.97;;;1.05;;
3819;SDS011;1925;51.356;9.530;2023-03-23T11:07:05;4.50;;;1.05;;
3819;SDS011;1925;51.356;9.530;2023-03-23T11:09:39;1.73;;;1.58;;
3819;SDS011;1925;51.356;9.530;2023-03-23T11:12:15;1.02;;;0.60;;
3819;SDS011;1925;51.356;9.530;2023-03-23T11:14:42;2.65;;;1.20;;
3819;SDS011;1925;51.356;9.530;2023-03-23T11:17:25;1.08;;;0.75;;
3819;SDS011;1925;51.356;9.530;2023-03-23T11:19:51;1.70;;;1.10;;
3819;SDS011;1925;51.356;9.530;2023-03-23T11:22:29;3.35;;;1.02;;
3819;SDS011;1925;51.356;9.530;2023-03-23T11:24:59;2.90;;;1.00;;
3819;SDS011;1925;51.356;9.530;2023-03-23T11:27:26;1.43;;;0.90;;
3819;SDS011;1925;51.356;9.530;2023-03-23T11:32:18;3.35;;;1.88;;
3819;SDS011;1925;51.356;9.530;2023-03-23T11:34:47;7.45;;;2.17;;
3819;SDS011;1925;51.356;9.530;2023-03-23T11:37:14;3.03;;;1.40;;
3819;SDS011;1925;51.356;9.530;2023-03-23T11:39:47;1.65;;;1.23;;
3819;SDS011;1925;51.356;9.530;2023-03-23T11:42:20;2.60;;;1.10;;
3819;SDS011;1925;51.356;9.530;2023-03-23T11:44:47;2.50;;;1.10;;
3819;SDS011;1925;51.356;9.530;2023-03-23T11:47:20;4.50;;;1.10;;
3819;SDS011;1925;51.356;9.530;2023-03-23T11:52:34;2.03;;;1.02;;
3819;SDS011;1925;51.356;9.530;2023-03-23T11:57:55;2.55;;;1.13;;
3819;SDS011;1925;51.356;9.530;2023-03-23T12:00:21;2.97;;;1.27;;
3819;SDS011;1925;51.356;9.530;2023-03-23T12:02:56;1.65;;;1.35;;
3819;SDS011;1925;51.356;9.530;2023-03-23T12:05:41;3.05;;;1.10;;
3819;SDS011;1925;51.356;9.530;2023-03-23T12:08:31;1.48;;;1.00;;
3819;SDS011;1925;51.356;9.530;2023-03-23T12:11:07;1.40;;;0.85;;
3819;SDS011;1925;51.356;9.530;2023-03-23T12:26:26;1.43;;;0.90;;
3819;SDS011;1925;51.356;9.530;2023-03-23T12:29:04;0.90;;;0.70;;
3819;SDS011;1925;51.356;9.530;2023-03-23T12:31:41;1.65;;;0.90;;
3819;SDS011;1925;51.356;9.530;2023-03-23T12:34:26;1.38;;;0.90;;
3819;SDS011;1925;51.356;9.530;2023-03-23T12:39:43;1.33;;;0.90;;
3819;SDS011;1925;51.356;9.530;2023-03-23T12:42:16;2.10;;;0.93;;
3819;SDS011;1925;51.356;9.530;2023-03-23T12:44:46;1.20;;;0.80;;
3819;SDS011;1925;51.356;9.530;2023-03-23T12:47:16;1.10;;;0.90;;
3819;SDS011;1925;51.356;9.530;2023-03-23T12:49:46;1.73;;;1.13;;
3819;SDS011;1925;51.356;9.530;2023-03-23T12:52:26;1.20;;;0.83;;
3819;SDS011;1925;51.356;9.530;2023-03-23T12:54:59;1.20;;;0.83;;
3819;SDS011;1925;51.356;9.530;2023-03-23T13:00:20;3.57;;;1.00;;
3819;SDS011;1925;51.356;9.530;2023-03-23T13:02:59;4.80;;;0.90;;
3819;SDS011;1925;51.356;9.530;2023-03-23T13:05:29;2.53;;;1.03;;
3819;SDS011;1925;51.356;9.530;2023-03-23T13:10:26;4.30;;;1.07;;
3819;SDS011;1925;51.356;9.530;2023-03-23T13:12:53;2.20;;;0.73;;
3819;SDS011;1925;51.356;9.530;2023-03-23T13:15:26;1.00;;;0.77;;
3819;SDS011;1925;51.356;9.530;2023-03-23T13:17:59;1.23;;;1.00;;
3819;SDS011;1925;51.356;9.530;2023-03-23T13:28:29;1.60;;;0.98;;
3819;SDS011;1925;51.356;9.530;2023-03-23T13:30:57;1.20;;;0.70;;
3819;SDS011;1925;51.356;9.530;2023-03-23T13:33:23;3.50;;;1.00;;
3819;SDS011;1925;51.356;9.530;2023-03-23T13:35:50;1.73;;;0.93;;
3819;SDS011;1925;51.356;9.530;2023-03-23T13:38:21;1.13;;;0.80;;
3819;SDS011;1925;51.356;9.530;2023-03-23T13:40:49;2.47;;;1.03;;
3819;SDS011;1925;51.356;9.530;2023-03-23T13:43:24;2.00;;;1.33;;
3819;SDS011;1925;51.356;9.530;2023-03-23T13:45:51;5.30;;;1.00;;
3819;SDS011;1925;51.356;9.530;2023-03-23T13:48:22;2.40;;;0.97;;
3819;SDS011;1925;51.356;9.530;2023-03-23T13:50:50;2.60;;;1.08;;
3819;SDS011;1925;51.356;9.530;2023-03-23T13:53:23;4.07;;;0.80;;
3819;SDS011;1925;51.356;9.530;2023-03-23T13:55:51;0.90;;;0.80;;
3819;SDS011;1925;51.356;9.530;2023-03-23T13:58:22;2.87;;;0.87;;
3819;SDS011;1925;51.356;9.530;2023-03-23T14:00:50;2.00;;;0.67;;
3819;SDS011;1925;51.356;9.530;2023-03-23T14:03:59;1.20;;;0.90;;
3819;SDS011;1925;51.356;9.530;2023-03-23T14:06:06;1.00;;;0.67;;
3819;SDS011;1925;51.356;9.530;2023-03-23T14:18:48;1.25;;;0.70;;
3819;SDS011;1925;51.356;9.530;2023-03-23T14:21:16;0.93;;;0.73;;
3819;SDS011;1925;51.356;9.530;2023-03-23T14:23:42;2.43;;;1.20;;
3819;SDS011;1925;51.356;9.530;2023-03-23T14:26:16;1.35;;;0.80;;
3819;SDS011;1925;51.356;9.530;2023-03-23T14:28:43;2.40;;;0.80;;
3819;SDS011;1925;51.356;9.530;2023-03-23T14:34:11;1.20;;;0.70;;
3819;SDS011;1925;51.356;9.530;2023-03-23T14:36:38;3.92;;;0.90;;
3819;SDS011;1925;51.356;9.530;2023-03-23T14:39:07;2.40;;;0.90;;
3819;SDS011;1925;51.356;9.530;2023-03-23T14:41:37;2.20;;;1.03;;
3819;SDS011;1925;51.356;9.530;2023-03-23T14:44:05;0.90;;;0.60;;
3819;SDS011;1925;51.356;9.530;2023-03-23T14:46:32;4.30;;;0.90;;
3819;SDS011;1925;51.356;9.530;2023-03-23T14:48:59;2.07;;;1.40;;
3819;SDS011;1925;51.356;9.530;2023-03-23T14:51:26;1.77;;;1.23;;
3819;SDS011;1925;51.356;9.530;2023-03-23T14:53:52;2.90;;;1.10;;
3819;SDS011;1925;51.356;9.530;2023-03-23T14:56:19;1.50;;;0.90;;
3819;SDS011;1925;51.356;9.530;2023-03-23T14:58:48;4.00;;;1.37;;
3819;SDS011;1925;51.356;9.530;2023-03-23T15:01:26;1.07;;;0.70;;
3819;SDS011;1925;51.356;9.530;2023-03-23T15:03:55;1.40;;;1.00;;
3819;SDS011;1925;51.356;9.530;2023-03-23T15:06:21;1.10;;;0.90;;
3819;SDS011;1925;51.356;9.530;2023-03-23T15:08:48;1.30;;;0.90;;
3819;SDS011;1925;51.356;9.530;2023-03-23T15:13:43;1.70;;;0.80;;
3819;SDS011;1925;51.356;9.530;2023-03-23T15:16:14;1.10;;;0.70;;
3819;SDS011;1925;51.356;9.530;2023-03-23T15:18:40;1.93;;;0.80;;
3819;SDS011;1925;51.356;9.530;2023-03-23T15:22:14;1.37;;;1.03;;
3819;SDS011;1925;51.356;9.530;2023-03-23T15:24:19;3.00;;;0.90;;
3819;SDS011;1925;51.356;9.530;2023-03-23T15:26:45;0.70;;;0.60;;
3819;SDS011;1925;51.356;9.530;2023-03-23T15:29:13;1.27;;;0.70;;
3819;SDS011;1925;51.356;9.530;2023-03-23T15:31:40;1.53;;;1.10;;
3819;SDS011;1925;51.356;9.530;2023-03-23T15:34:10;2.53;;;0.90;;
3819;SDS011;1925;51.356;9.530;2023-03-23T15:36:37;1.17;;;0.87;;
3819;SDS011;1925;51.356;9.530;2023-03-23T15:39:03;2.13;;;0.97;;
3819;SDS011;1925;51.356;9.530;2023-03-23T15:41:32;1.33;;;0.83;;
3819;SDS011;1925;51.356;9.530;2023-03-23T15:43:58;1.00;;;0.60;;
3819;SDS011;1925;51.356;9.530;2023-03-23T15:46:34;1.30;;;0.70;;
3819;SDS011;1925;51.356;9.530;2023-03-23T15:51:27;1.07;;;0.73;;
3819;SDS011;1925;51.356;9.530;2023-03-23T15:53:54;1.33;;;0.67;;
3819;SDS011;1925;51.356;9.530;2023-03-23T15:56:20;1.60;;;0.80;;
3819;SDS011;1925;51.356;9.530;2023-03-23T15:58:47;1.93;;;0.60;;
3819;SDS011;1925;51.356;9.530;2023-03-23T16:01:14;1.50;;;1.20;;
3819;SDS011;1925;51.356;9.530;2023-03-23T16:03:42;1.90;;;0.80;;
3819;SDS011;1925;51.356;9.530;2023-03-23T16:06:10;2.33;;;1.13;;
3819;SDS011;1925;51.356;9.530;2023-03-23T16:08:37;3.03;;;0.90;;
3819;SDS011;1925;51.356;9.530;2023-03-23T16:11:05;1.47;;;0.60;;
3819;SDS011;1925;51.356;9.530;2023-03-23T16:13:31;1.60;;;0.90;;
3819;SDS011;1925;51.356;9.530;2023-03-23T16:15:57;3.20;;;1.03;;
3819;SDS011;1925;51.356;9.530;2023-03-23T16:18:23;2.80;;;1.23;;
3819;SDS011;1925;51.356;9.530;2023-03-23T16:20:49;2.13;;;0.83;;
3819;SDS011;1925;51.356;9.530;2023-03-23T16:23:16;2.33;;;1.20;;
3819;SDS011;1925;51.356;9.530;2023-03-23T16:25:42;2.87;;;1.10;;
3819;SDS011;1925;51.356;9.530;2023-03-23T16:28:11;1.67;;;0.70;;
3819;SDS011;1925;51.356;9.530;2023-03-23T16:30:38;1.07;;;0.80;;
3819;SDS011;1925;51.356;9.530;2023-03-23T16:33:04;1.73;;;0.80;;
3819;SDS011;1925;51.356;9.530;2023-03-23T16:35:31;1.57;;;1.00;;
3819;SDS011;1925;51.356;9.530;2023-03-23T16:37:57;2.30;;;0.90;;
3819;SDS011;1925;51.356;9.530;2023-03-23T16:40:23;3.50;;;1.30;;
3819;SDS011;1925;51.356;9.530;2023-03-23T16:42:49;1.30;;;1.10;;
3819;SDS011;1925;51.356;9.530;2023-03-23T16:45:15;1.30;;;0.90;;
3819;SDS011;1925;51.356;9.530;2023-03-23T16:47:42;2.30;;;0.90;;
3819;SDS011;1925;51.356;9.530;2023-03-23T16:50:10;1.77;;;1.00;;
3819;SDS011;1925;51.356;9.530;2023-03-23T16:52:40;2.53;;;1.20;;
3819;SDS011;1925;51.356;9.530;2023-03-23T16:55:06;2.20;;;1.10;;
3819;SDS011;1925;51.356;9.530;2023-03-23T16:57:32;1.50;;;1.20;;
3819;SDS011;1925;51.356;9.530;2023-03-23T17:00:02;2.23;;;1.13;;